• Join FlightAware (Why Join?)
  • Login
  • US Flag 
03:38PM EDT


 

Airport Tracker/Info


-or-


 

Live Flight TrackerFlight Track Log ✈ TRS398 ✈ 25-May-2013 ✈ KMCO - KMKE

Flight Track Log - Related Links

Times and Time Zones

All times are in EDT time to prevent confusion due to time zone crossing. See the TRS398 flight status page for this flight to view local times or setup timezone preferences in your user account.

Time Position Orientation Groundspeed Altitude Reporting Facility
EDT Latitude Longitude Course Direction KTS MPH feet Rate Location/Type
02:40PM 28.4333 -81.3000 24° Northeast 163 188 900  Level Orlando TRACON
02:40PM 28.4667 -81.2833 24° Northeast 202 232 1,500 1,740 Climbing Orlando TRACON
02:41PM 28.5333 -81.2500 24° Northeast 259 298 3,600 2,400 Climbing Orlando TRACON
02:42PM 28.6000 -81.2667 348° North 269 310 6,400 2,760 Climbing Orlando TRACON
02:43PM 28.6639 -81.3050 332° Northwest 274 315 9,100 2,100 Climbing Jacksonville Center
02:44PM 28.7356 -81.3583 327° Northwest 321 369 10,600 1,440 Climbing Jacksonville Center
02:45PM 28.8175 -81.4092 331° Northwest 362 417 12,000 1,680 Climbing Jacksonville Center
02:46PM 28.9078 -81.4647 332° Northwest 375 432 14,000 1,860 Climbing Jacksonville Center
02:47PM 29.0125 -81.4989 344° North 375 432 15,800 1,800 Climbing Jacksonville Center
02:48PM 29.1172 -81.5331 344° North 386 444 17,700 1,680 Climbing Jacksonville Center
02:49PM 29.2264 -81.5719 343° North 396 456 19,200 1,500 Climbing Jacksonville Center
02:50PM 29.3394 -81.6086 344° North 402 463 20,700 1,500 Climbing Jacksonville Center
02:51PM 29.4525 -81.6453 344° North 412 474 22,200 1,320 Climbing Jacksonville Center
02:52PM 29.5697 -81.6819 345° North 424 488 23,400 1,260 Climbing Jacksonville Center
02:53PM 29.6892 -81.7211 344° North 430 495 24,800 1,200 Climbing Jacksonville Center
02:54PM 29.8083 -81.7603 344° North 441 507 25,900 1,200 Climbing Jacksonville Center
02:55PM 29.9319 -81.8019 344° North 441 507 27,200 1,740 Climbing Jacksonville Center
02:56PM 30.0367 -81.8319 346° North 441 507 29,400 1,500 Climbing Jacksonville Center
02:57PM 30.1517 -81.8692 344° North 429 494 30,200 1,200 Climbing Jacksonville Center
02:58PM 30.2753 -81.9161 342° North 429 494 31,900 1,320 Climbing Jacksonville Center
02:59PM 30.3842 -81.9631 340° North 424 488 32,900 540 Climbing Jacksonville Center
03:00PM 30.4911 -82.0078 340° North 412 474 33,000  Climbing Jacksonville Center
03:01PM 30.5917 -82.0553 338° Northwest 412 474 33,000  Level Jacksonville Center
03:02PM 30.6983 -82.1000 340° North 412 474 33,000  Level Jacksonville Center
03:03PM 30.8072 -82.1475 339° North 412 474 33,000  Level Jacksonville Center
03:04PM 30.9161 -82.1953 339° North 412 474 33,000  Level Jacksonville Center
03:05PM 31.0228 -82.2428 339° North 412 474 33,000 -60 Level Jacksonville Center
03:06PM 31.1317 -82.2906 339° North 412 474 32,900  Descending Jacksonville Center
03:07PM 31.2403 -82.3336 341° North 412 474 33,000  Climbing Jacksonville Center
03:08PM 31.3450 -82.3842 338° Northwest 412 474 33,000  Level Jacksonville Center
03:09PM 31.4536 -82.4250 342° North 407 468 33,000  Level Jacksonville Center
03:10PM 31.5603 -82.4708 340° North 407 468 33,000  Level Jacksonville Center
03:12PM 31.7250 -82.5447 339° North 409 471 33,000  Level Atlanta Center
03:13PM 31.8342 -82.5917 340° North 404 465 33,000  Level Atlanta Center
03:14PM 31.9369 -82.6389 339° North 409 471 33,000  Level Atlanta Center
03:15PM 32.0439 -82.6839 340° North 409 471 33,000  Level Atlanta Center
03:16PM 32.1486 -82.7289 340° North 404 465 33,000  Level Atlanta Center
03:17PM 32.2514 -82.7764 339° North 404 465 33,000 -540 Level Atlanta Center
03:18PM 32.3564 -82.8217 340° North 404 465 32,000 -1,080 Descending Atlanta Center
03:19PM 32.4633 -82.8694 339° North 404 465 30,900 -1,020 Descending Atlanta Center
03:20PM 32.5658 -82.9200 337° Northwest 399 459 30,000 -480 Descending Atlanta Center
03:21PM 32.6750 -82.9653 341° North 399 459 30,000  Level Atlanta Center
03:22PM 32.7819 -83.0161 338° Northwest 404 465 30,000  Level Atlanta Center
03:23PM 32.8864 -83.0592 341° North 404 465 30,000  Level Atlanta Center
03:24PM 32.9933 -83.1100 338° Northwest 404 465 30,000  Level Atlanta Center
03:25PM 33.1189 -83.1633 340° North 423 487 30,000  Level Atlanta Center
03:26PM 33.2258 -83.2169 337° Northwest 423 487 30,000  Level Atlanta Center
03:27PM 33.3389 -83.2656 340° North 423 487 30,000  Level Atlanta Center
03:28PM 33.4394 -83.3094 340° North 423 487 30,000  Level Atlanta Center
03:29PM 33.5481 -83.3608 338° Northwest 423 487 30,000  Level Atlanta Center
03:30PM 33.6592 -83.4100 340° North 423 487 30,000  Level Atlanta Center
03:31PM 33.7678 -83.4614 339° North 416 479 30,000  Level Atlanta Center
03:32PM 33.8786 -83.5108 340° North 416 479 30,000  Level Atlanta Center
03:33PM 33.9853 -83.5603 339° North 416 479 30,000  Level Atlanta Center
03:34PM 34.0942 -83.6097 339° North 416 479 30,000  Level Atlanta Center
03:35PM 34.2006 -83.6594 339° North 410 472 30,000  Level Atlanta Center
03:36PM 34.3114 -83.7119 339° North 418 481 30,000  Level Atlanta Center
03:37PM 34.4222 -83.7617 340° North 423 487 30,000  Level Atlanta Center
03:38PM 34.5433 -83.8219 338° Northwest 423 487 30,000  Level Atlanta Center
03:39PM 34.6561 -83.8747 339° North 423 487 30,000  Level Atlanta Center
03:40PM 34.7625 -83.9250 339° North 422 486 30,000  Level Atlanta Center
03:41PM 34.8733 -83.9781 339° North 417 480 30,000  Level Atlanta Center
03:42PM 34.9817 -84.0311 338° Northwest 417 480 30,000  Level Atlanta Center
03:43PM 35.0903 -84.0844 338° Northwest 417 480 30,000  Level Atlanta Center
03:44PM 35.1986 -84.1328 340° North 417 480 30,000  Level Atlanta Center
03:45PM 35.3050 -84.1839 339° North 417 480 30,000  Level Atlanta Center
03:46PM 35.4094 -84.2350 338° Northwest 417 480 30,000  Level Atlanta Center
03:47PM 35.5156 -84.2836 340° North 411 473 30,000  Level Atlanta Center
03:48PM 35.6219 -84.3378 338° Northwest 411 473 30,000  Level Atlanta Center
03:49PM 35.7283 -84.3892 339° North 411 473 30,000  Level Atlanta Center
03:51PM 35.8997 -84.4703 339° North 411 473 30,000  Level Indianapolis Center
03:52PM 36.0053 -84.5211 339° North 411 473 30,000  Level Indianapolis Center
03:53PM 36.1108 -84.5733 338° Northwest 412 474 30,000  Level Indianapolis Center
03:54PM 36.2381 -84.6361 338° Northwest 413 475 30,000  Level Indianapolis Center
03:55PM 36.3444 -84.6881 339° North 413 475 30,000  Level Indianapolis Center
03:56PM 36.4500 -84.7408 338° Northwest 411 473 30,000  Level Indianapolis Center
03:57PM 36.5556 -84.7931 338° Northwest 410 472 30,000  Level Indianapolis Center
03:58PM 36.6617 -84.8464 338° Northwest 411 473 30,000  Level Indianapolis Center
03:59PM 36.7678 -84.8986 338° Northwest 410 472 30,000  Level Indianapolis Center
04:00PM 36.8758 -84.9525 338° Northwest 417 480 30,000  Level Indianapolis Center
04:01PM 36.9817 -85.0067 338° Northwest 414 476 30,000  Level Indianapolis Center
04:02PM 37.1061 -85.0672 339° North 411 473 30,000  Level Indianapolis Center
04:03PM 37.2133 -85.1214 338° Northwest 414 476 30,000  Level Indianapolis Center
04:04PM 37.3194 -85.1764 338° Northwest 414 476 30,000  Level Indianapolis Center
04:05PM 37.4261 -85.2292 339° North 411 473 30,000  Level Indianapolis Center
04:06PM 37.5317 -85.2831 338° Northwest 409 471 30,000  Level Indianapolis Center
04:07PM 37.6372 -85.3394 337° Northwest 409 471 30,000  Level Indianapolis Center
04:08PM 37.7603 -85.4017 338° Northwest 408 470 30,000  Level Indianapolis Center
04:09PM 37.8494 -85.4467 338° Northwest 410 472 30,000  Level Indianapolis Center
04:10PM 37.9567 -85.5014 338° Northwest 413 475 30,000  Level Indianapolis Center
04:11PM 38.0836 -85.5672 338° Northwest 412 474 30,000  Level Indianapolis Center
04:12PM 38.1886 -85.6231 337° Northwest 411 473 30,000  Level Indianapolis Center
04:13PM 38.2911 -85.6861 334° Northwest 409 471 30,000  Level Indianapolis Center
04:14PM 38.3944 -85.7481 335° Northwest 410 472 30,000  Level Indianapolis Center
04:15PM 38.4983 -85.8100 335° Northwest 410 472 30,000  Level Indianapolis Center
04:16PM 38.6025 -85.8708 335° Northwest 413 475 30,000  Level Indianapolis Center
04:17PM 38.7058 -85.9336 335° Northwest 410 472 30,000  Level Indianapolis Center
04:18PM 38.8086 -85.9939 335° Northwest 408 470 30,000  Level Indianapolis Center
04:19PM 38.9186 -86.0603 335° Northwest 408 470 30,000  Level Indianapolis Center
04:20PM 39.0200 -86.1217 335° Northwest 404 465 30,000  Level Indianapolis Center
04:21PM 39.1219 -86.1819 335° Northwest 405 466 30,000  Level Indianapolis Center
04:22PM 39.2228 -86.2436 335° Northwest 401 461 30,000  Level Indianapolis Center
04:23PM 39.3450 -86.3186 335° Northwest 404 465 30,000  Level Indianapolis Center
04:24PM 39.4478 -86.3811 335° Northwest 406 467 30,000  Level Indianapolis Center
04:25PM 39.5514 -86.4453 334° Northwest 408 470 30,000  Level Indianapolis Center
04:26PM 39.6569 -86.5092 335° Northwest 412 474 30,000  Level Indianapolis Center
04:27PM 39.7619 -86.5739 335° Northwest 411 473 30,000  Level Indianapolis Center
04:28PM 39.8653 -86.6372 335° Northwest 408 470 30,000  Level Indianapolis Center
04:29PM 39.9692 -86.7008 335° Northwest 409 471 30,000  Level Indianapolis Center
04:30PM 40.0714 -86.7642 335° Northwest 407 468 30,000  Level Indianapolis Center
04:32PM 40.1744 -86.8292 334° Northwest 409 471 30,000  Level Indianapolis Center
04:32PM 40.2153 -86.8547 334° Northwest 409 471 30,000  Level Chicago Center
04:33PM 40.3181 -86.9206 334° Northwest 409 471 30,000  Level Chicago Center
04:34PM 40.4219 -86.9842 335° Northwest 409 471 30,000  Level Chicago Center
04:35PM 40.5236 -87.0497 334° Northwest 407 468 30,000  Level Chicago Center
04:36PM 40.6372 -87.0783 349° North 412 474 30,000  Level Chicago Center
04:37PM 40.7661 -87.0953 354° North 421 484 30,000  Level Chicago Center
04:38PM 40.8808 -87.1106 354° North 418 481 30,000  Level Chicago Center
04:39PM 40.9975 -87.1256 354° North 423 487 30,000  Level Chicago Center
04:40PM 41.1142 -87.1397 355° North 423 487 30,000  Level Chicago Center
04:41PM 41.2533 -87.1581 354° North 424 488 30,000  Level Chicago Center
04:42PM 41.3689 -87.1733 354° North 421 484 30,000  Level Chicago Center
04:43PM 41.4856 -87.1889 354° North 424 488 30,000 -960 Level Chicago Center
04:44PM 41.6025 -87.2036 355° North 425 489 28,100 -2,160 Descending Chicago Center
04:45PM 41.7150 -87.2192 354° North 415 478 25,600 -2,280 Descending Chicago Center
04:46PM 41.8289 -87.2328 355° North 414 476 23,500 -1,860 Descending Chicago Center
04:47PM 41.9578 -87.2517 354° North 394 453 21,800 -1,680 Descending Chicago Center
04:48PM 42.0606 -87.2625 356° North 378 435 20,100 -1,500 Descending Chicago Center
04:49PM 42.1647 -87.2761 354° North 378 435 18,800 -1,080 Descending Chicago Center
04:50PM 42.2664 -87.2903 354° North 372 428 17,900 -1,080 Descending Chicago Center
04:51PM 42.3650 -87.3047 354° North 361 415 16,600 -1,920 Descending Chicago Center
04:52PM 42.4769 -87.3175 355° North 354 407 14,000 -2,460 Descending Chicago Center
04:53PM 42.5725 -87.3325 353° North 346 398 11,600 -1,920 Descending Chicago Center
04:54PM 42.6650 -87.3600 348° North 355 409 10,100 -780 Descending Chicago Center
04:55PM 42.7222 -87.4600 308° West 337 388 10,000 -60 Descending Chicago Center
04:56PM 42.7803 -87.5631 308° West 340 391 10,000  Level Chicago Center
04:58PM 42.8517 -87.6436 320° Northwest 340 391 10,000 -60 Level Chicago Center
04:59PM 42.8850 -87.7711 290° West 332 382 9,900 -840 Descending Chicago Center
05:00PM 42.8686 -87.8764 258° West 294 338 8,300 -1,500 Descending Chicago Center
05:01PM 42.8444 -87.9761 252° West 281 323 6,900 -1,200 Descending Chicago Center
05:02PM 42.8239 -88.0628 252° West 253 291 5,900 -1,200 Descending Chicago Center
05:03PM 42.8156 -88.1475 262° West 234 269 4,500 -1,260 Descending Chicago Center
05:04PM 42.8694 -88.1481 360° North 220 253 3,400 -900 Descending Chicago Center
05:05PM 42.8986 -88.0806 59° Northeast 215 247 2,700 -540 Descending Chicago Center
05:06PM 42.9133 -88.0189 72° East 190 219 2,300 -600 Descending Chicago Center
05:07PM 42.9267 -87.9625 72° East 156 180 1,500 -540 Descending Chicago Center
05:08PM 42.9383 -87.9219 69° East 150 173 1,300 -240 Descending Chicago Center
05:10PM 42.9469 -87.8971 54° Northeast  Level Estimated